sensor_id;sensor_type;location;lat;lon;timestamp;P1;durP1;ratioP1;P2;durP2;ratioP2
42616;SDS011;28250;52.320;0.360;2023-05-10T00:00:59;5.15;;;2.58;;
42616;SDS011;28250;52.320;0.360;2023-05-10T00:03:25;2.90;;;1.90;;
42616;SDS011;28250;52.320;0.360;2023-05-10T00:05:51;2.42;;;1.67;;
42616;SDS011;28250;52.320;0.360;2023-05-10T00:08:17;3.95;;;2.10;;
42616;SDS011;28250;52.320;0.360;2023-05-10T00:10:43;3.00;;;2.17;;
42616;SDS011;28250;52.320;0.360;2023-05-10T00:13:09;2.72;;;1.88;;
42616;SDS011;28250;52.320;0.360;2023-05-10T00:15:35;5.45;;;2.40;;
42616;SDS011;28250;52.320;0.360;2023-05-10T00:18:01;3.50;;;2.30;;
42616;SDS011;28250;52.320;0.360;2023-05-10T00:20:27;4.47;;;2.40;;
42616;SDS011;28250;52.320;0.360;2023-05-10T00:22:53;5.38;;;2.28;;
42616;SDS011;28250;52.320;0.360;2023-05-10T00:25:19;3.78;;;2.20;;
42616;SDS011;28250;52.320;0.360;2023-05-10T00:27:47;3.58;;;2.20;;
42616;SDS011;28250;52.320;0.360;2023-05-10T00:30:13;4.20;;;2.47;;
42616;SDS011;28250;52.320;0.360;2023-05-10T00:32:39;6.18;;;3.05;;
42616;SDS011;28250;52.320;0.360;2023-05-10T00:35:05;3.50;;;2.47;;
42616;SDS011;28250;52.320;0.360;2023-05-10T00:37:32;7.03;;;3.17;;
42616;SDS011;28250;52.320;0.360;2023-05-10T00:39:58;3.45;;;2.80;;
42616;SDS011;28250;52.320;0.360;2023-05-10T00:42:26;4.68;;;2.70;;
42616;SDS011;28250;52.320;0.360;2023-05-10T00:44:53;4.40;;;2.67;;
42616;SDS011;28250;52.320;0.360;2023-05-10T00:47:19;6.72;;;4.00;;
42616;SDS011;28250;52.320;0.360;2023-05-10T00:49:45;5.68;;;3.00;;
42616;SDS011;28250;52.320;0.360;2023-05-10T00:52:11;3.70;;;2.72;;
42616;SDS011;28250;52.320;0.360;2023-05-10T00:54:37;4.72;;;3.30;;
42616;SDS011;28250;52.320;0.360;2023-05-10T00:57:03;5.25;;;3.55;;
42616;SDS011;28250;52.320;0.360;2023-05-10T00:59:29;8.88;;;3.55;;
42616;SDS011;28250;52.320;0.360;2023-05-10T01:01:55;8.43;;;3.50;;
42616;SDS011;28250;52.320;0.360;2023-05-10T01:04:23;4.70;;;2.97;;
42616;SDS011;28250;52.320;0.360;2023-05-10T01:06:52;5.53;;;3.45;;
42616;SDS011;28250;52.320;0.360;2023-05-10T01:09:21;6.65;;;3.85;;
42616;SDS011;28250;52.320;0.360;2023-05-10T01:11:48;6.07;;;3.60;;
42616;SDS011;28250;52.320;0.360;2023-05-10T01:14:14;6.70;;;3.83;;
42616;SDS011;28250;52.320;0.360;2023-05-10T01:16:44;6.80;;;3.20;;
42616;SDS011;28250;52.320;0.360;2023-05-10T01:31:03;7.93;;;4.53;;
42616;SDS011;28250;52.320;0.360;2023-05-10T01:37:21;10.23;;;5.40;;
42616;SDS011;28250;52.320;0.360;2023-05-10T01:39:39;9.27;;;5.18;;
42616;SDS011;28250;52.320;0.360;2023-05-10T01:42:21;7.78;;;5.18;;
42616;SDS011;28250;52.320;0.360;2023-05-10T01:48:08;9.05;;;5.25;;
42616;SDS011;28250;52.320;0.360;2023-05-10T01:50:37;9.70;;;5.60;;
42616;SDS011;28250;52.320;0.360;2023-05-10T01:53:07;10.88;;;6.10;;
42616;SDS011;28250;52.320;0.360;2023-05-10T01:55:38;10.05;;;5.10;;
42616;SDS011;28250;52.320;0.360;2023-05-10T01:58:13;11.73;;;4.80;;
42616;SDS011;28250;52.320;0.360;2023-05-10T02:00:43;9.88;;;4.38;;
42616;SDS011;28250;52.320;0.360;2023-05-10T02:03:11;8.05;;;4.43;;
42616;SDS011;28250;52.320;0.360;2023-05-10T02:05:39;9.18;;;4.28;;
42616;SDS011;28250;52.320;0.360;2023-05-10T02:08:06;8.57;;;4.18;;
42616;SDS011;28250;52.320;0.360;2023-05-10T02:10:35;8.70;;;3.47;;
42616;SDS011;28250;52.320;0.360;2023-05-10T02:13:03;10.65;;;4.85;;
42616;SDS011;28250;52.320;0.360;2023-05-10T02:15:31;5.95;;;2.65;;
42616;SDS011;28250;52.320;0.360;2023-05-10T02:17:59;8.85;;;3.35;;
42616;SDS011;28250;52.320;0.360;2023-05-10T02:20:27;9.60;;;3.35;;
42616;SDS011;28250;52.320;0.360;2023-05-10T02:22:57;12.32;;;2.55;;
42616;SDS011;28250;52.320;0.360;2023-05-10T02:25:24;7.57;;;2.72;;
42616;SDS011;28250;52.320;0.360;2023-05-10T02:27:53;6.40;;;2.38;;
42616;SDS011;28250;52.320;0.360;2023-05-10T02:30:21;6.97;;;2.83;;
42616;SDS011;28250;52.320;0.360;2023-05-10T02:32:49;9.40;;;3.50;;
42616;SDS011;28250;52.320;0.360;2023-05-10T02:35:17;5.88;;;2.90;;
42616;SDS011;28250;52.320;0.360;2023-05-10T02:37:44;4.32;;;2.22;;
42616;SDS011;28250;52.320;0.360;2023-05-10T02:40:12;7.30;;;2.60;;
42616;SDS011;28250;52.320;0.360;2023-05-10T02:42:41;7.53;;;2.65;;
42616;SDS011;28250;52.320;0.360;2023-05-10T02:47:41;7.18;;;2.60;;
42616;SDS011;28250;52.320;0.360;2023-05-10T02:50:07;4.95;;;2.33;;
42616;SDS011;28250;52.320;0.360;2023-05-10T02:52:36;9.95;;;2.25;;
42616;SDS011;28250;52.320;0.360;2023-05-10T02:55:09;7.78;;;2.78;;
42616;SDS011;28250;52.320;0.360;2023-05-10T02:57:46;7.28;;;2.53;;
42616;SDS011;28250;52.320;0.360;2023-05-10T03:00:17;5.72;;;2.13;;
42616;SDS011;28250;52.320;0.360;2023-05-10T03:02:44;7.30;;;3.33;;
42616;SDS011;28250;52.320;0.360;2023-05-10T03:05:10;6.78;;;2.50;;
42616;SDS011;28250;52.320;0.360;2023-05-10T03:07:36;5.85;;;2.13;;
42616;SDS011;28250;52.320;0.360;2023-05-10T03:10:02;5.40;;;2.67;;
42616;SDS011;28250;52.320;0.360;2023-05-10T03:18:48;14.90;;;2.78;;
42616;SDS011;28250;52.320;0.360;2023-05-10T03:21:22;6.50;;;2.53;;
42616;SDS011;28250;52.320;0.360;2023-05-10T03:23:58;5.78;;;1.95;;
42616;SDS011;28250;52.320;0.360;2023-05-10T03:26:35;8.27;;;2.53;;
42616;SDS011;28250;52.320;0.360;2023-05-10T03:29:08;6.20;;;2.13;;
42616;SDS011;28250;52.320;0.360;2023-05-10T03:31:36;9.48;;;2.17;;
42616;SDS011;28250;52.320;0.360;2023-05-10T03:34:03;6.97;;;2.03;;
42616;SDS011;28250;52.320;0.360;2023-05-10T03:36:29;5.07;;;1.70;;
42616;SDS011;28250;52.320;0.360;2023-05-10T03:38:55;3.67;;;2.22;;
42616;SDS011;28250;52.320;0.360;2023-05-10T03:41:21;8.50;;;1.98;;
42616;SDS011;28250;52.320;0.360;2023-05-10T03:43:47;6.75;;;1.75;;
42616;SDS011;28250;52.320;0.360;2023-05-10T03:46:13;6.22;;;2.00;;
42616;SDS011;28250;52.320;0.360;2023-05-10T03:48:40;7.13;;;1.88;;
42616;SDS011;28250;52.320;0.360;2023-05-10T03:51:06;6.78;;;2.80;;
42616;SDS011;28250;52.320;0.360;2023-05-10T03:53:32;3.42;;;1.90;;
42616;SDS011;28250;52.320;0.360;2023-05-10T03:55:58;9.18;;;2.10;;
42616;SDS011;28250;52.320;0.360;2023-05-10T03:58:24;10.05;;;2.20;;
42616;SDS011;28250;52.320;0.360;2023-05-10T04:00:50;3.88;;;1.45;;
42616;SDS011;28250;52.320;0.360;2023-05-10T04:03:17;3.60;;;1.58;;
42616;SDS011;28250;52.320;0.360;2023-05-10T04:05:43;5.97;;;1.83;;
42616;SDS011;28250;52.320;0.360;2023-05-10T04:08:09;8.18;;;1.77;;
42616;SDS011;28250;52.320;0.360;2023-05-10T04:10:35;5.22;;;1.73;;
42616;SDS011;28250;52.320;0.360;2023-05-10T04:13:01;7.50;;;1.90;;
42616;SDS011;28250;52.320;0.360;2023-05-10T04:15:28;4.97;;;1.98;;
42616;SDS011;28250;52.320;0.360;2023-05-10T04:17:54;4.15;;;1.80;;
42616;SDS011;28250;52.320;0.360;2023-05-10T04:20:19;5.78;;;1.50;;
42616;SDS011;28250;52.320;0.360;2023-05-10T04:22:45;4.82;;;2.00;;
42616;SDS011;28250;52.320;0.360;2023-05-10T04:25:12;6.65;;;1.40;;
42616;SDS011;28250;52.320;0.360;2023-05-10T04:27:38;5.10;;;1.95;;
42616;SDS011;28250;52.320;0.360;2023-05-10T04:30:04;4.47;;;1.83;;
42616;SDS011;28250;52.320;0.360;2023-05-10T04:32:32;5.25;;;1.80;;
42616;SDS011;28250;52.320;0.360;2023-05-10T04:34:58;4.68;;;1.63;;
42616;SDS011;28250;52.320;0.360;2023-05-10T04:37:24;8.73;;;1.90;;
42616;SDS011;28250;52.320;0.360;2023-05-10T04:39:50;2.83;;;1.98;;
42616;SDS011;28250;52.320;0.360;2023-05-10T04:42:16;8.35;;;2.22;;
42616;SDS011;28250;52.320;0.360;2023-05-10T04:44:42;3.95;;;1.27;;
42616;SDS011;28250;52.320;0.360;2023-05-10T04:47:08;5.57;;;1.50;;
42616;SDS011;28250;52.320;0.360;2023-05-10T04:49:34;8.10;;;2.58;;
42616;SDS011;28250;52.320;0.360;2023-05-10T04:52:00;6.32;;;1.50;;
42616;SDS011;28250;52.320;0.360;2023-05-10T04:54:26;7.72;;;2.28;;
42616;SDS011;28250;52.320;0.360;2023-05-10T04:56:52;5.63;;;1.83;;
42616;SDS011;28250;52.320;0.360;2023-05-10T04:59:18;7.10;;;2.40;;
42616;SDS011;28250;52.320;0.360;2023-05-10T05:01:44;8.77;;;2.20;;
42616;SDS011;28250;52.320;0.360;2023-05-10T05:04:10;7.50;;;1.92;;
42616;SDS011;28250;52.320;0.360;2023-05-10T05:06:37;6.10;;;1.98;;
42616;SDS011;28250;52.320;0.360;2023-05-10T05:09:07;4.18;;;2.03;;
42616;SDS011;28250;52.320;0.360;2023-05-10T05:11:35;9.35;;;2.33;;
42616;SDS011;28250;52.320;0.360;2023-05-10T05:14:01;8.55;;;2.22;;
42616;SDS011;28250;52.320;0.360;2023-05-10T05:16:27;5.57;;;2.30;;
42616;SDS011;28250;52.320;0.360;2023-05-10T05:18:55;4.28;;;1.83;;
42616;SDS011;28250;52.320;0.360;2023-05-10T05:21:22;7.35;;;2.28;;
42616;SDS011;28250;52.320;0.360;2023-05-10T05:23:49;3.17;;;1.80;;
42616;SDS011;28250;52.320;0.360;2023-05-10T05:26:15;4.85;;;2.10;;
42616;SDS011;28250;52.320;0.360;2023-05-10T05:28:41;4.38;;;2.65;;
42616;SDS011;28250;52.320;0.360;2023-05-10T05:31:07;6.22;;;2.17;;
42616;SDS011;28250;52.320;0.360;2023-05-10T05:33:34;6.07;;;2.10;;
42616;SDS011;28250;52.320;0.360;2023-05-10T05:36:00;5.47;;;2.28;;
42616;SDS011;28250;52.320;0.360;2023-05-10T05:40:54;9.05;;;3.20;;
42616;SDS011;28250;52.320;0.360;2023-05-10T05:43:20;5.45;;;2.28;;
42616;SDS011;28250;52.320;0.360;2023-05-10T05:45:46;7.78;;;2.42;;
42616;SDS011;28250;52.320;0.360;2023-05-10T05:48:12;6.50;;;2.75;;
42616;SDS011;28250;52.320;0.360;2023-05-10T05:50:38;10.98;;;3.30;;
42616;SDS011;28250;52.320;0.360;2023-05-10T05:53:04;6.60;;;2.75;;
42616;SDS011;28250;52.320;0.360;2023-05-10T05:55:30;9.65;;;3.13;;
42616;SDS011;28250;52.320;0.360;2023-05-10T05:57:57;10.13;;;3.83;;
42616;SDS011;28250;52.320;0.360;2023-05-10T06:00:23;11.93;;;3.20;;
42616;SDS011;28250;52.320;0.360;2023-05-10T06:02:49;12.25;;;3.47;;
42616;SDS011;28250;52.320;0.360;2023-05-10T06:05:15;10.52;;;3.25;;
42616;SDS011;28250;52.320;0.360;2023-05-10T06:07:42;8.73;;;3.40;;
42616;SDS011;28250;52.320;0.360;2023-05-10T06:10:08;9.63;;;3.00;;
42616;SDS011;28250;52.320;0.360;2023-05-10T06:12:34;9.67;;;3.20;;
42616;SDS011;28250;52.320;0.360;2023-05-10T06:15:01;11.40;;;3.17;;
42616;SDS011;28250;52.320;0.360;2023-05-10T06:17:29;9.68;;;3.35;;
42616;SDS011;28250;52.320;0.360;2023-05-10T06:19:55;16.48;;;3.63;;
42616;SDS011;28250;52.320;0.360;2023-05-10T06:22:21;15.23;;;5.00;;
42616;SDS011;28250;52.320;0.360;2023-05-10T06:24:48;9.98;;;3.42;;
42616;SDS011;28250;52.320;0.360;2023-05-10T06:27:14;9.25;;;4.10;;
42616;SDS011;28250;52.320;0.360;2023-05-10T06:29:41;6.65;;;3.58;;
42616;SDS011;28250;52.320;0.360;2023-05-10T06:32:07;9.75;;;3.53;;
42616;SDS011;28250;52.320;0.360;2023-05-10T06:34:33;13.20;;;4.13;;
42616;SDS011;28250;52.320;0.360;2023-05-10T06:36:59;13.73;;;4.40;;
42616;SDS011;28250;52.320;0.360;2023-05-10T06:39:25;11.65;;;4.63;;
42616;SDS011;28250;52.320;0.360;2023-05-10T06:41:51;13.35;;;3.90;;
42616;SDS011;28250;52.320;0.360;2023-05-10T06:44:18;17.65;;;5.35;;
42616;SDS011;28250;52.320;0.360;2023-05-10T06:46:44;17.65;;;5.07;;
42616;SDS011;28250;52.320;0.360;2023-05-10T06:49:10;14.85;;;4.32;;
42616;SDS011;28250;52.320;0.360;2023-05-10T06:51:36;17.40;;;4.40;;
42616;SDS011;28250;52.320;0.360;2023-05-10T06:54:02;13.65;;;3.72;;
42616;SDS011;28250;52.320;0.360;2023-05-10T06:56:28;14.02;;;4.03;;
42616;SDS011;28250;52.320;0.360;2023-05-10T06:58:54;12.00;;;4.13;;
42616;SDS011;28250;52.320;0.360;2023-05-10T07:01:20;12.52;;;4.45;;
42616;SDS011;28250;52.320;0.360;2023-05-10T07:03:46;15.30;;;3.85;;
42616;SDS011;28250;52.320;0.360;2023-05-10T07:06:12;16.20;;;4.05;;
42616;SDS011;28250;52.320;0.360;2023-05-10T07:08:38;11.15;;;4.07;;
42616;SDS011;28250;52.320;0.360;2023-05-10T07:11:05;10.85;;;4.35;;
42616;SDS011;28250;52.320;0.360;2023-05-10T07:13:32;10.23;;;3.95;;
42616;SDS011;28250;52.320;0.360;2023-05-10T07:15:59;16.05;;;5.18;;
42616;SDS011;28250;52.320;0.360;2023-05-10T07:18:25;15.25;;;5.20;;
42616;SDS011;28250;52.320;0.360;2023-05-10T07:20:52;9.25;;;3.28;;
42616;SDS011;28250;52.320;0.360;2023-05-10T07:23:18;13.10;;;4.15;;
42616;SDS011;28250;52.320;0.360;2023-05-10T07:25:47;8.65;;;3.55;;
42616;SDS011;28250;52.320;0.360;2023-05-10T07:28:14;12.38;;;3.97;;
42616;SDS011;28250;52.320;0.360;2023-05-10T07:30:41;10.82;;;3.60;;
42616;SDS011;28250;52.320;0.360;2023-05-10T07:33:08;8.60;;;3.72;;
42616;SDS011;28250;52.320;0.360;2023-05-10T07:35:35;10.45;;;3.47;;
42616;SDS011;28250;52.320;0.360;2023-05-10T07:38:01;13.75;;;4.70;;
42616;SDS011;28250;52.320;0.360;2023-05-10T07:40:28;10.27;;;3.20;;
42616;SDS011;28250;52.320;0.360;2023-05-10T07:42:54;8.52;;;4.53;;
42616;SDS011;28250;52.320;0.360;2023-05-10T07:45:20;7.38;;;2.92;;
42616;SDS011;28250;52.320;0.360;2023-05-10T07:47:47;13.20;;;3.70;;
42616;SDS011;28250;52.320;0.360;2023-05-10T07:50:13;10.90;;;4.00;;
42616;SDS011;28250;52.320;0.360;2023-05-10T07:52:39;7.47;;;2.90;;
42616;SDS011;28250;52.320;0.360;2023-05-10T07:55:05;10.55;;;3.42;;
42616;SDS011;28250;52.320;0.360;2023-05-10T07:57:33;8.07;;;3.38;;
42616;SDS011;28250;52.320;0.360;2023-05-10T08:00:00;9.95;;;3.25;;
42616;SDS011;28250;52.320;0.360;2023-05-10T08:02:26;8.13;;;2.88;;
42616;SDS011;28250;52.320;0.360;2023-05-10T08:04:52;12.05;;;3.47;;
42616;SDS011;28250;52.320;0.360;2023-05-10T08:07:18;11.57;;;3.28;;
42616;SDS011;28250;52.320;0.360;2023-05-10T08:09:44;6.43;;;2.75;;
42616;SDS011;28250;52.320;0.360;2023-05-10T08:12:10;7.72;;;3.38;;
42616;SDS011;28250;52.320;0.360;2023-05-10T08:14:36;8.35;;;2.67;;
42616;SDS011;28250;52.320;0.360;2023-05-10T08:17:02;10.70;;;2.70;;
42616;SDS011;28250;52.320;0.360;2023-05-10T08:19:29;6.57;;;3.13;;
42616;SDS011;28250;52.320;0.360;2023-05-10T08:21:55;6.85;;;2.65;;
42616;SDS011;28250;52.320;0.360;2023-05-10T08:24:21;10.98;;;2.83;;
42616;SDS011;28250;52.320;0.360;2023-05-10T08:26:47;8.60;;;2.90;;
42616;SDS011;28250;52.320;0.360;2023-05-10T08:29:14;8.27;;;2.58;;
42616;SDS011;28250;52.320;0.360;2023-05-10T08:31:40;9.17;;;2.50;;
42616;SDS011;28250;52.320;0.360;2023-05-10T08:34:06;8.45;;;2.70;;
42616;SDS011;28250;52.320;0.360;2023-05-10T08:36:32;6.07;;;2.92;;
42616;SDS011;28250;52.320;0.360;2023-05-10T08:38:58;7.47;;;2.88;;
42616;SDS011;28250;52.320;0.360;2023-05-10T08:41:25;8.10;;;2.60;;
42616;SDS011;28250;52.320;0.360;2023-05-10T08:43:52;6.55;;;2.75;;
42616;SDS011;28250;52.320;0.360;2023-05-10T08:46:20;6.68;;;2.20;;
42616;SDS011;28250;52.320;0.360;2023-05-10T08:48:48;6.50;;;2.67;;
42616;SDS011;28250;52.320;0.360;2023-05-10T08:51:21;3.33;;;2.38;;
42616;SDS011;28250;52.320;0.360;2023-05-10T08:53:52;9.73;;;3.00;;
42616;SDS011;28250;52.320;0.360;2023-05-10T08:56:18;8.93;;;2.78;;
42616;SDS011;28250;52.320;0.360;2023-05-10T08:58:45;10.65;;;2.42;;
42616;SDS011;28250;52.320;0.360;2023-05-10T09:01:12;8.85;;;2.40;;
42616;SDS011;28250;52.320;0.360;2023-05-10T09:03:41;4.95;;;2.40;;
42616;SDS011;28250;52.320;0.360;2023-05-10T09:06:07;7.15;;;2.53;;
42616;SDS011;28250;52.320;0.360;2023-05-10T09:08:33;6.68;;;2.60;;
42616;SDS011;28250;52.320;0.360;2023-05-10T09:11:00;8.63;;;2.83;;
42616;SDS011;28250;52.320;0.360;2023-05-10T09:13:26;13.13;;;3.47;;
42616;SDS011;28250;52.320;0.360;2023-05-10T09:15:53;8.38;;;2.50;;
42616;SDS011;28250;52.320;0.360;2023-05-10T09:18:19;9.70;;;2.30;;
42616;SDS011;28250;52.320;0.360;2023-05-10T09:20:45;5.00;;;1.83;;
42616;SDS011;28250;52.320;0.360;2023-05-10T09:23:11;4.40;;;2.10;;
42616;SDS011;28250;52.320;0.360;2023-05-10T09:25:38;5.45;;;2.15;;
42616;SDS011;28250;52.320;0.360;2023-05-10T09:28:07;7.18;;;2.22;;
42616;SDS011;28250;52.320;0.360;2023-05-10T09:30:34;7.93;;;2.10;;
42616;SDS011;28250;52.320;0.360;2023-05-10T09:33:01;6.25;;;1.83;;
42616;SDS011;28250;52.320;0.360;2023-05-10T09:35:28;8.57;;;2.13;;
42616;SDS011;28250;52.320;0.360;2023-05-10T09:37:58;5.60;;;2.47;;
42616;SDS011;28250;52.320;0.360;2023-05-10T09:40:27;7.28;;;2.35;;
42616;SDS011;28250;52.320;0.360;2023-05-10T09:42:56;6.13;;;2.47;;
42616;SDS011;28250;52.320;0.360;2023-05-10T09:45:24;6.72;;;1.73;;
42616;SDS011;28250;52.320;0.360;2023-05-10T09:47:53;5.45;;;2.10;;
42616;SDS011;28250;52.320;0.360;2023-05-10T09:50:19;4.57;;;2.73;;
42616;SDS011;28250;52.320;0.360;2023-05-10T09:55:39;3.92;;;1.60;;
42616;SDS011;28250;52.320;0.360;2023-05-10T09:58:10;8.00;;;1.85;;
42616;SDS011;28250;52.320;0.360;2023-05-10T10:00:38;3.92;;;1.63;;
42616;SDS011;28250;52.320;0.360;2023-05-10T10:03:07;4.97;;;1.60;;
42616;SDS011;28250;52.320;0.360;2023-05-10T10:05:43;6.68;;;1.63;;
42616;SDS011;28250;52.320;0.360;2023-05-10T10:08:10;4.25;;;1.48;;
42616;SDS011;28250;52.320;0.360;2023-05-10T10:10:37;3.35;;;1.52;;
42616;SDS011;28250;52.320;0.360;2023-05-10T10:13:05;5.10;;;2.05;;
42616;SDS011;28250;52.320;0.360;2023-05-10T10:15:33;7.22;;;1.55;;
42616;SDS011;28250;52.320;0.360;2023-05-10T10:18:01;4.40;;;1.63;;
42616;SDS011;28250;52.320;0.360;2023-05-10T10:20:29;4.10;;;1.45;;
42616;SDS011;28250;52.320;0.360;2023-05-10T10:22:55;7.10;;;1.60;;
42616;SDS011;28250;52.320;0.360;2023-05-10T10:25:21;4.07;;;1.27;;
42616;SDS011;28250;52.320;0.360;2023-05-10T10:33:31;6.20;;;1.30;;
42616;SDS011;28250;52.320;0.360;2023-05-10T10:36:06;7.00;;;1.75;;
42616;SDS011;28250;52.320;0.360;2023-05-10T10:38:36;3.35;;;1.77;;
42616;SDS011;28250;52.320;0.360;2023-05-10T10:41:26;4.35;;;1.75;;
42616;SDS011;28250;52.320;0.360;2023-05-10T10:57:42;4.38;;;1.60;;
42616;SDS011;28250;52.320;0.360;2023-05-10T11:00:29;3.05;;;1.20;;
42616;SDS011;28250;52.320;0.360;2023-05-10T11:02:59;2.97;;;1.35;;
42616;SDS011;28250;52.320;0.360;2023-05-10T11:08:28;5.03;;;1.25;;
42616;SDS011;28250;52.320;0.360;2023-05-10T11:18:36;2.10;;;0.82;;
42616;SDS011;28250;52.320;0.360;2023-05-10T11:21:03;4.55;;;1.05;;
42616;SDS011;28250;52.320;0.360;2023-05-10T11:23:31;2.15;;;0.52;;
42616;SDS011;28250;52.320;0.360;2023-05-10T11:26:12;3.58;;;1.30;;
42616;SDS011;28250;52.320;0.360;2023-05-10T11:28:48;1.90;;;0.70;;
42616;SDS011;28250;52.320;0.360;2023-05-10T11:31:15;4.53;;;1.03;;
42616;SDS011;28250;52.320;0.360;2023-05-10T11:33:43;2.85;;;0.90;;
42616;SDS011;28250;52.320;0.360;2023-05-10T11:36:17;4.22;;;1.10;;
42616;SDS011;28250;52.320;0.360;2023-05-10T11:38:55;1.52;;;0.75;;
42616;SDS011;28250;52.320;0.360;2023-05-10T11:41:22;1.42;;;0.90;;
42616;SDS011;28250;52.320;0.360;2023-05-10T11:43:50;4.75;;;1.20;;
42616;SDS011;28250;52.320;0.360;2023-05-10T11:46:18;2.42;;;0.70;;
42616;SDS011;28250;52.320;0.360;2023-05-10T11:48:47;2.38;;;0.70;;
42616;SDS011;28250;52.320;0.360;2023-05-10T11:51:22;3.80;;;0.88;;
42616;SDS011;28250;52.320;0.360;2023-05-10T11:53:53;1.70;;;0.88;;
42616;SDS011;28250;52.320;0.360;2023-05-10T11:56:21;1.90;;;0.65;;
42616;SDS011;28250;52.320;0.360;2023-05-10T12:01:22;3.15;;;0.77;;
42616;SDS011;28250;52.320;0.360;2023-05-10T12:03:52;2.17;;;0.75;;
42616;SDS011;28250;52.320;0.360;2023-05-10T12:06:25;1.70;;;0.60;;
42616;SDS011;28250;52.320;0.360;2023-05-10T12:08:57;1.95;;;0.63;;
42616;SDS011;28250;52.320;0.360;2023-05-10T12:11:27;0.73;;;0.52;;
42616;SDS011;28250;52.320;0.360;2023-05-10T12:13:54;1.33;;;0.63;;
42616;SDS011;28250;52.320;0.360;2023-05-10T12:16:22;1.98;;;0.70;;
42616;SDS011;28250;52.320;0.360;2023-05-10T12:18:51;3.25;;;0.80;;
42616;SDS011;28250;52.320;0.360;2023-05-10T12:21:19;1.52;;;0.90;;
42616;SDS011;28250;52.320;0.360;2023-05-10T12:28:39;0.93;;;0.68;;
42616;SDS011;28250;52.320;0.360;2023-05-10T12:31:05;1.38;;;0.60;;
42616;SDS011;28250;52.320;0.360;2023-05-10T12:33:42;1.60;;;0.75;;
42616;SDS011;28250;52.320;0.360;2023-05-10T12:36:10;3.47;;;0.88;;
42616;SDS011;28250;52.320;0.360;2023-05-10T12:38:39;2.13;;;0.60;;
42616;SDS011;28250;52.320;0.360;2023-05-10T12:41:15;2.13;;;0.90;;
42616;SDS011;28250;52.320;0.360;2023-05-10T12:43:43;2.72;;;0.70;;
42616;SDS011;28250;52.320;0.360;2023-05-10T12:46:11;2.15;;;0.95;;
42616;SDS011;28250;52.320;0.360;2023-05-10T12:48:39;2.35;;;0.80;;
42616;SDS011;28250;52.320;0.360;2023-05-10T12:51:07;1.35;;;0.70;;
42616;SDS011;28250;52.320;0.360;2023-05-10T12:53:44;2.13;;;0.60;;
42616;SDS011;28250;52.320;0.360;2023-05-10T12:56:13;4.93;;;1.83;;
42616;SDS011;28250;52.320;0.360;2023-05-10T12:58:39;1.92;;;0.88;;
42616;SDS011;28250;52.320;0.360;2023-05-10T13:01:05;2.00;;;0.80;;
42616;SDS011;28250;52.320;0.360;2023-05-10T13:03:31;4.22;;;0.80;;
42616;SDS011;28250;52.320;0.360;2023-05-10T13:05:57;2.35;;;0.75;;
42616;SDS011;28250;52.320;0.360;2023-05-10T13:08:23;3.70;;;0.90;;
42616;SDS011;28250;52.320;0.360;2023-05-10T13:10:50;3.08;;;0.75;;
42616;SDS011;28250;52.320;0.360;2023-05-10T13:13:16;2.92;;;0.70;;
42616;SDS011;28250;52.320;0.360;2023-05-10T13:15:42;1.88;;;0.80;;
42616;SDS011;28250;52.320;0.360;2023-05-10T13:18:08;1.60;;;0.60;;
42616;SDS011;28250;52.320;0.360;2023-05-10T13:20:34;1.30;;;0.95;;
42616;SDS011;28250;52.320;0.360;2023-05-10T13:23:00;2.47;;;0.73;;
42616;SDS011;28250;52.320;0.360;2023-05-10T13:25:27;2.40;;;0.63;;
42616;SDS011;28250;52.320;0.360;2023-05-10T13:27:53;2.63;;;1.35;;
42616;SDS011;28250;52.320;0.360;2023-05-10T13:30:19;3.53;;;1.10;;
42616;SDS011;28250;52.320;0.360;2023-05-10T13:32:46;6.80;;;1.25;;
42616;SDS011;28250;52.320;0.360;2023-05-10T13:35:12;0.75;;;0.50;;
42616;SDS011;28250;52.320;0.360;2023-05-10T13:37:38;2.60;;;1.02;;
42616;SDS011;28250;52.320;0.360;2023-05-10T13:40:04;1.02;;;0.52;;
42616;SDS011;28250;52.320;0.360;2023-05-10T13:42:31;2.72;;;0.90;;
42616;SDS011;28250;52.320;0.360;2023-05-10T13:44:59;1.35;;;0.70;;
42616;SDS011;28250;52.320;0.360;2023-05-10T13:47:28;1.80;;;0.70;;
42616;SDS011;28250;52.320;0.360;2023-05-10T13:49:54;2.38;;;0.80;;
42616;SDS011;28250;52.320;0.360;2023-05-10T13:52:20;4.60;;;1.33;;
42616;SDS011;28250;52.320;0.360;2023-05-10T13:54:46;2.42;;;0.80;;
42616;SDS011;28250;52.320;0.360;2023-05-10T13:57:12;1.42;;;0.70;;
42616;SDS011;28250;52.320;0.360;2023-05-10T13:59:39;1.23;;;0.65;;
42616;SDS011;28250;52.320;0.360;2023-05-10T14:02:05;3.33;;;1.20;;
42616;SDS011;28250;52.320;0.360;2023-05-10T14:04:31;5.05;;;1.00;;
42616;SDS011;28250;52.320;0.360;2023-05-10T14:06:59;1.55;;;0.70;;
42616;SDS011;28250;52.320;0.360;2023-05-10T14:09:25;1.35;;;0.80;;
42616;SDS011;28250;52.320;0.360;2023-05-10T14:11:51;4.63;;;0.80;;
42616;SDS011;28250;52.320;0.360;2023-05-10T14:14:17;1.73;;;0.57;;
42616;SDS011;28250;52.320;0.360;2023-05-10T14:16:43;2.38;;;0.70;;
42616;SDS011;28250;52.320;0.360;2023-05-10T14:19:10;4.28;;;0.98;;
42616;SDS011;28250;52.320;0.360;2023-05-10T14:21:36;1.57;;;0.80;;
42616;SDS011;28250;52.320;0.360;2023-05-10T14:24:03;1.48;;;1.00;;
42616;SDS011;28250;52.320;0.360;2023-05-10T14:26:29;3.63;;;0.90;;
42616;SDS011;28250;52.320;0.360;2023-05-10T14:28:56;1.98;;;0.90;;
42616;SDS011;28250;52.320;0.360;2023-05-10T14:31:21;1.60;;;1.05;;
42616;SDS011;28250;52.320;0.360;2023-05-10T14:33:49;2.17;;;1.10;;
42616;SDS011;28250;52.320;0.360;2023-05-10T14:36:15;1.42;;;0.90;;
42616;SDS011;28250;52.320;0.360;2023-05-10T14:38:42;2.63;;;1.00;;
42616;SDS011;28250;52.320;0.360;2023-05-10T14:41:08;3.35;;;0.80;;
42616;SDS011;28250;52.320;0.360;2023-05-10T14:43:34;2.50;;;0.90;;
42616;SDS011;28250;52.320;0.360;2023-05-10T14:46:01;1.88;;;0.90;;
42616;SDS011;28250;52.320;0.360;2023-05-10T14:48:27;2.08;;;0.95;;
42616;SDS011;28250;52.320;0.360;2023-05-10T14:50:53;6.05;;;1.88;;
42616;SDS011;28250;52.320;0.360;2023-05-10T14:53:19;4.80;;;1.50;;
42616;SDS011;28250;52.320;0.360;2023-05-10T14:55:45;5.05;;;1.83;;
42616;SDS011;28250;52.320;0.360;2023-05-10T14:58:11;5.45;;;1.63;;
42616;SDS011;28250;52.320;0.360;2023-05-10T15:00:37;2.80;;;1.50;;
42616;SDS011;28250;52.320;0.360;2023-05-10T15:03:04;5.22;;;2.05;;
42616;SDS011;28250;52.320;0.360;2023-05-10T15:05:30;4.55;;;2.10;;
42616;SDS011;28250;52.320;0.360;2023-05-10T15:07:56;4.72;;;2.17;;
42616;SDS011;28250;52.320;0.360;2023-05-10T15:10:22;4.65;;;1.70;;
42616;SDS011;28250;52.320;0.360;2023-05-10T15:12:48;5.18;;;1.58;;
42616;SDS011;28250;52.320;0.360;2023-05-10T15:15:15;4.30;;;1.42;;
42616;SDS011;28250;52.320;0.360;2023-05-10T15:17:41;2.95;;;1.40;;
42616;SDS011;28250;52.320;0.360;2023-05-10T15:20:07;2.28;;;0.77;;
42616;SDS011;28250;52.320;0.360;2023-05-10T15:22:33;2.67;;;1.42;;
42616;SDS011;28250;52.320;0.360;2023-05-10T15:24:59;1.83;;;0.70;;
42616;SDS011;28250;52.320;0.360;2023-05-10T15:27:25;2.45;;;1.27;;
42616;SDS011;28250;52.320;0.360;2023-05-10T15:29:52;1.65;;;0.50;;
42616;SDS011;28250;52.320;0.360;2023-05-10T15:32:18;2.78;;;0.93;;
42616;SDS011;28250;52.320;0.360;2023-05-10T15:34:44;2.13;;;0.47;;
42616;SDS011;28250;52.320;0.360;2023-05-10T15:37:10;1.42;;;0.60;;
42616;SDS011;28250;52.320;0.360;2023-05-10T15:39:36;2.55;;;0.75;;
42616;SDS011;28250;52.320;0.360;2023-05-10T15:42:02;2.47;;;0.60;;
42616;SDS011;28250;52.320;0.360;2023-05-10T15:44:29;5.40;;;0.77;;
42616;SDS011;28250;52.320;0.360;2023-05-10T15:46:55;1.50;;;0.50;;
42616;SDS011;28250;52.320;0.360;2023-05-10T15:49:21;2.20;;;0.63;;
42616;SDS011;28250;52.320;0.360;2023-05-10T15:51:47;0.82;;;0.40;;
42616;SDS011;28250;52.320;0.360;2023-05-10T15:54:13;1.30;;;0.43;;
42616;SDS011;28250;52.320;0.360;2023-05-10T15:56:40;2.13;;;0.60;;